sensor_id;sensor_type;location;lat;lon;timestamp;P1;durP1;ratioP1;P2;durP2;ratioP2
1106;SDS011;540;49.448;8.612;2023-05-08T00:01:40;5.97;;;3.97;;
1106;SDS011;540;49.448;8.612;2023-05-08T00:04:07;9.15;;;4.60;;
1106;SDS011;540;49.448;8.612;2023-05-08T00:06:37;5.32;;;4.22;;
1106;SDS011;540;49.448;8.612;2023-05-08T00:09:05;6.75;;;4.28;;
1106;SDS011;540;49.448;8.612;2023-05-08T00:11:32;4.65;;;4.07;;
1106;SDS011;540;49.448;8.612;2023-05-08T00:14:00;5.18;;;3.60;;
1106;SDS011;540;49.448;8.612;2023-05-08T00:16:28;7.07;;;5.30;;
1106;SDS011;540;49.448;8.612;2023-05-08T00:18:56;5.50;;;4.30;;
1106;SDS011;540;49.448;8.612;2023-05-08T00:21:24;6.93;;;4.20;;
1106;SDS011;540;49.448;8.612;2023-05-08T00:23:54;6.90;;;3.90;;
1106;SDS011;540;49.448;8.612;2023-05-08T00:26:21;5.80;;;4.60;;
1106;SDS011;540;49.448;8.612;2023-05-08T00:28:49;6.97;;;4.32;;
1106;SDS011;540;49.448;8.612;2023-05-08T00:31:17;5.00;;;4.38;;
1106;SDS011;540;49.448;8.612;2023-05-08T00:33:45;4.20;;;3.80;;
1106;SDS011;540;49.448;8.612;2023-05-08T00:36:12;11.50;;;4.10;;
1106;SDS011;540;49.448;8.612;2023-05-08T00:38:40;4.72;;;4.10;;
1106;SDS011;540;49.448;8.612;2023-05-08T00:41:10;6.80;;;4.45;;
1106;SDS011;540;49.448;8.612;2023-05-08T00:43:38;5.10;;;4.13;;
1106;SDS011;540;49.448;8.612;2023-05-08T00:46:06;7.20;;;3.40;;
1106;SDS011;540;49.448;8.612;2023-05-08T00:48:34;6.05;;;3.72;;
1106;SDS011;540;49.448;8.612;2023-05-08T00:51:03;16.50;;;10.90;;
1106;SDS011;540;49.448;8.612;2023-05-08T00:53:35;4.60;;;3.85;;
1106;SDS011;540;49.448;8.612;2023-05-08T00:56:04;4.55;;;3.80;;
1106;SDS011;540;49.448;8.612;2023-05-08T00:58:34;6.85;;;3.80;;
1106;SDS011;540;49.448;8.612;2023-05-08T01:01:01;7.07;;;4.50;;
1106;SDS011;540;49.448;8.612;2023-05-08T01:03:30;5.03;;;3.85;;
1106;SDS011;540;49.448;8.612;2023-05-08T01:05:59;6.15;;;4.03;;
1106;SDS011;540;49.448;8.612;2023-05-08T01:08:28;4.90;;;3.70;;
1106;SDS011;540;49.448;8.612;2023-05-08T01:11:00;4.78;;;4.00;;
1106;SDS011;540;49.448;8.612;2023-05-08T01:13:39;6.18;;;3.47;;
1106;SDS011;540;49.448;8.612;2023-05-08T01:16:16;8.38;;;3.75;;
1106;SDS011;540;49.448;8.612;2023-05-08T01:18:56;4.53;;;4.05;;
1106;SDS011;540;49.448;8.612;2023-05-08T01:21:30;5.22;;;3.78;;
1106;SDS011;540;49.448;8.612;2023-05-08T01:27:31;5.88;;;3.75;;
1106;SDS011;540;49.448;8.612;2023-05-08T01:30:32;4.43;;;3.17;;
1106;SDS011;540;49.448;8.612;2023-05-08T01:33:12;5.53;;;3.50;;
1106;SDS011;540;49.448;8.612;2023-05-08T01:35:48;4.10;;;3.47;;
1106;SDS011;540;49.448;8.612;2023-05-08T01:38:25;3.80;;;3.10;;
1106;SDS011;540;49.448;8.612;2023-05-08T01:41:01;3.90;;;3.42;;
1106;SDS011;540;49.448;8.612;2023-05-08T01:43:34;5.03;;;3.60;;
1106;SDS011;540;49.448;8.612;2023-05-08T01:46:18;9.23;;;4.72;;
1106;SDS011;540;49.448;8.612;2023-05-08T01:48:52;4.05;;;3.65;;
1106;SDS011;540;49.448;8.612;2023-05-08T01:51:26;5.72;;;3.55;;
1106;SDS011;540;49.448;8.612;2023-05-08T01:53:59;3.25;;;2.90;;
1106;SDS011;540;49.448;8.612;2023-05-08T01:56:31;4.07;;;3.50;;
1106;SDS011;540;49.448;8.612;2023-05-08T01:59:00;4.60;;;3.35;;
1106;SDS011;540;49.448;8.612;2023-05-08T02:01:30;4.43;;;3.13;;
1106;SDS011;540;49.448;8.612;2023-05-08T02:04:01;3.75;;;2.88;;
1106;SDS011;540;49.448;8.612;2023-05-08T02:06:29;5.00;;;3.22;;
1106;SDS011;540;49.448;8.612;2023-05-08T02:08:58;5.28;;;3.45;;
1106;SDS011;540;49.448;8.612;2023-05-08T02:11:26;4.65;;;2.83;;
1106;SDS011;540;49.448;8.612;2023-05-08T02:13:56;3.75;;;3.00;;
1106;SDS011;540;49.448;8.612;2023-05-08T02:16:26;4.35;;;3.05;;
1106;SDS011;540;49.448;8.612;2023-05-08T02:18:56;4.00;;;3.55;;
1106;SDS011;540;49.448;8.612;2023-05-08T02:21:27;6.38;;;3.58;;
1106;SDS011;540;49.448;8.612;2023-05-08T02:23:57;4.72;;;3.20;;
1106;SDS011;540;49.448;8.612;2023-05-08T02:26:26;4.93;;;3.28;;
1106;SDS011;540;49.448;8.612;2023-05-08T02:28:55;4.10;;;3.63;;
1106;SDS011;540;49.448;8.612;2023-05-08T02:31:24;4.35;;;3.72;;
1106;SDS011;540;49.448;8.612;2023-05-08T02:33:52;3.95;;;3.40;;
1106;SDS011;540;49.448;8.612;2023-05-08T02:36:21;4.15;;;3.58;;
1106;SDS011;540;49.448;8.612;2023-05-08T02:38:51;4.70;;;3.40;;
1106;SDS011;540;49.448;8.612;2023-05-08T02:41:22;3.67;;;3.03;;
1106;SDS011;540;49.448;8.612;2023-05-08T02:43:55;5.63;;;3.47;;
1106;SDS011;540;49.448;8.612;2023-05-08T02:46:24;6.63;;;3.30;;
1106;SDS011;540;49.448;8.612;2023-05-08T02:48:56;4.32;;;3.05;;
1106;SDS011;540;49.448;8.612;2023-05-08T02:51:27;6.38;;;3.03;;
1106;SDS011;540;49.448;8.612;2023-05-08T02:54:07;3.88;;;2.80;;
1106;SDS011;540;49.448;8.612;2023-05-08T02:56:49;6.25;;;3.88;;
1106;SDS011;540;49.448;8.612;2023-05-08T02:59:24;3.38;;;2.83;;
1106;SDS011;540;49.448;8.612;2023-05-08T03:01:58;7.05;;;3.08;;
1106;SDS011;540;49.448;8.612;2023-05-08T03:04:36;4.45;;;3.60;;
1106;SDS011;540;49.448;8.612;2023-05-08T03:07:10;3.90;;;3.13;;
1106;SDS011;540;49.448;8.612;2023-05-08T03:09:40;7.15;;;4.45;;
1106;SDS011;540;49.448;8.612;2023-05-08T03:12:12;5.68;;;3.38;;
1106;SDS011;540;49.448;8.612;2023-05-08T03:14:44;4.25;;;2.97;;
1106;SDS011;540;49.448;8.612;2023-05-08T03:17:19;5.00;;;3.50;;
1106;SDS011;540;49.448;8.612;2023-05-08T03:19:51;3.53;;;3.22;;
1106;SDS011;540;49.448;8.612;2023-05-08T03:22:26;4.10;;;3.45;;
1106;SDS011;540;49.448;8.612;2023-05-08T03:24:56;4.65;;;2.72;;
1106;SDS011;540;49.448;8.612;2023-05-08T03:27:26;3.67;;;2.92;;
1106;SDS011;540;49.448;8.612;2023-05-08T03:29:55;4.38;;;3.05;;
1106;SDS011;540;49.448;8.612;2023-05-08T03:32:24;3.67;;;3.28;;
1106;SDS011;540;49.448;8.612;2023-05-08T03:34:53;6.03;;;3.42;;
1106;SDS011;540;49.448;8.612;2023-05-08T03:37:25;5.32;;;3.33;;
1106;SDS011;540;49.448;8.612;2023-05-08T03:39:53;6.97;;;3.55;;
1106;SDS011;540;49.448;8.612;2023-05-08T03:42:23;5.88;;;3.30;;
1106;SDS011;540;49.448;8.612;2023-05-08T03:44:52;5.63;;;3.30;;
1106;SDS011;540;49.448;8.612;2023-05-08T03:47:20;3.60;;;3.00;;
1106;SDS011;540;49.448;8.612;2023-05-08T03:49:49;4.10;;;3.70;;
1106;SDS011;540;49.448;8.612;2023-05-08T03:52:18;3.17;;;2.88;;
1106;SDS011;540;49.448;8.612;2023-05-08T03:54:46;6.97;;;3.25;;
1106;SDS011;540;49.448;8.612;2023-05-08T03:57:15;3.95;;;2.95;;
1106;SDS011;540;49.448;8.612;2023-05-08T03:59:48;3.22;;;2.70;;
1106;SDS011;540;49.448;8.612;2023-05-08T04:02:27;4.63;;;2.60;;
1106;SDS011;540;49.448;8.612;2023-05-08T04:05:00;4.45;;;2.80;;
1106;SDS011;540;49.448;8.612;2023-05-08T04:07:34;3.67;;;2.67;;
1106;SDS011;540;49.448;8.612;2023-05-08T04:12:44;4.35;;;2.60;;
1106;SDS011;540;49.448;8.612;2023-05-08T04:15:24;3.17;;;2.55;;
1106;SDS011;540;49.448;8.612;2023-05-08T04:17:56;3.50;;;2.50;;
1106;SDS011;540;49.448;8.612;2023-05-08T04:20:26;4.57;;;2.85;;
1106;SDS011;540;49.448;8.612;2023-05-08T04:22:56;4.78;;;2.67;;
1106;SDS011;540;49.448;8.612;2023-05-08T04:25:25;9.05;;;3.90;;
1106;SDS011;540;49.448;8.612;2023-05-08T04:27:55;3.80;;;2.88;;
1106;SDS011;540;49.448;8.612;2023-05-08T04:30:25;3.25;;;2.90;;
1106;SDS011;540;49.448;8.612;2023-05-08T04:32:53;7.32;;;3.22;;
1106;SDS011;540;49.448;8.612;2023-05-08T04:35:22;3.53;;;3.03;;
1106;SDS011;540;49.448;8.612;2023-05-08T04:37:49;3.95;;;3.28;;
1106;SDS011;540;49.448;8.612;2023-05-08T04:40:18;4.72;;;3.55;;
1106;SDS011;540;49.448;8.612;2023-05-08T04:42:46;9.52;;;3.17;;
1106;SDS011;540;49.448;8.612;2023-05-08T04:45:15;4.15;;;3.00;;
1106;SDS011;540;49.448;8.612;2023-05-08T04:47:43;3.35;;;3.00;;
1106;SDS011;540;49.448;8.612;2023-05-08T04:50:11;4.20;;;3.05;;
1106;SDS011;540;49.448;8.612;2023-05-08T04:52:39;6.03;;;3.03;;
1106;SDS011;540;49.448;8.612;2023-05-08T04:55:08;4.68;;;2.97;;
1106;SDS011;540;49.448;8.612;2023-05-08T04:57:36;4.40;;;3.15;;
1106;SDS011;540;49.448;8.612;2023-05-08T05:00:05;5.25;;;2.80;;
1106;SDS011;540;49.448;8.612;2023-05-08T05:02:35;7.15;;;4.05;;
1106;SDS011;540;49.448;8.612;2023-05-08T05:05:03;7.18;;;3.40;;
1106;SDS011;540;49.448;8.612;2023-05-08T05:07:31;5.90;;;3.85;;
1106;SDS011;540;49.448;8.612;2023-05-08T05:09:59;7.28;;;3.72;;
1106;SDS011;540;49.448;8.612;2023-05-08T05:12:27;4.53;;;3.17;;
1106;SDS011;540;49.448;8.612;2023-05-08T05:14:55;6.80;;;3.30;;
1106;SDS011;540;49.448;8.612;2023-05-08T05:17:22;7.03;;;3.42;;
1106;SDS011;540;49.448;8.612;2023-05-08T05:19:52;5.60;;;3.88;;
1106;SDS011;540;49.448;8.612;2023-05-08T05:22:19;5.07;;;3.83;;
1106;SDS011;540;49.448;8.612;2023-05-08T05:24:47;6.40;;;3.97;;
1106;SDS011;540;49.448;8.612;2023-05-08T05:27:15;4.40;;;3.70;;
1106;SDS011;540;49.448;8.612;2023-05-08T05:29:46;4.18;;;3.30;;
1106;SDS011;540;49.448;8.612;2023-05-08T05:32:14;8.10;;;3.42;;
1106;SDS011;540;49.448;8.612;2023-05-08T05:34:41;4.28;;;3.55;;
1106;SDS011;540;49.448;8.612;2023-05-08T05:37:11;6.60;;;3.70;;
1106;SDS011;540;49.448;8.612;2023-05-08T05:39:38;6.47;;;4.03;;
1106;SDS011;540;49.448;8.612;2023-05-08T05:42:06;5.38;;;4.03;;
1106;SDS011;540;49.448;8.612;2023-05-08T05:44:34;7.20;;;3.50;;
1106;SDS011;540;49.448;8.612;2023-05-08T05:47:02;4.78;;;3.75;;
1106;SDS011;540;49.448;8.612;2023-05-08T05:49:31;6.95;;;3.60;;
1106;SDS011;540;49.448;8.612;2023-05-08T05:51:59;4.10;;;3.70;;
1106;SDS011;540;49.448;8.612;2023-05-08T05:54:28;5.93;;;3.40;;
1106;SDS011;540;49.448;8.612;2023-05-08T05:56:56;6.47;;;3.55;;
1106;SDS011;540;49.448;8.612;2023-05-08T05:59:24;4.22;;;3.28;;
1106;SDS011;540;49.448;8.612;2023-05-08T06:01:52;4.32;;;3.92;;
1106;SDS011;540;49.448;8.612;2023-05-08T06:04:19;6.07;;;3.58;;
1106;SDS011;540;49.448;8.612;2023-05-08T06:06:47;5.20;;;3.78;;
1106;SDS011;540;49.448;8.612;2023-05-08T06:09:15;4.63;;;3.47;;
1106;SDS011;540;49.448;8.612;2023-05-08T06:11:44;5.07;;;3.78;;
1106;SDS011;540;49.448;8.612;2023-05-08T06:14:12;5.88;;;3.85;;
1106;SDS011;540;49.448;8.612;2023-05-08T06:16:40;7.18;;;3.70;;
1106;SDS011;540;49.448;8.612;2023-05-08T06:19:10;6.35;;;4.60;;
1106;SDS011;540;49.448;8.612;2023-05-08T06:21:38;7.55;;;4.15;;
1106;SDS011;540;49.448;8.612;2023-05-08T06:24:06;6.28;;;4.15;;
1106;SDS011;540;49.448;8.612;2023-05-08T06:26:34;5.13;;;3.70;;
1106;SDS011;540;49.448;8.612;2023-05-08T06:29:03;7.85;;;3.80;;
1106;SDS011;540;49.448;8.612;2023-05-08T06:31:31;9.35;;;4.72;;
1106;SDS011;540;49.448;8.612;2023-05-08T06:33:59;6.65;;;4.22;;
1106;SDS011;540;49.448;8.612;2023-05-08T06:36:27;5.47;;;3.95;;
1106;SDS011;540;49.448;8.612;2023-05-08T06:38:54;4.70;;;4.13;;
1106;SDS011;540;49.448;8.612;2023-05-08T06:41:22;5.68;;;4.13;;
1106;SDS011;540;49.448;8.612;2023-05-08T06:43:50;6.97;;;4.30;;
1106;SDS011;540;49.448;8.612;2023-05-08T06:46:19;9.30;;;4.00;;
1106;SDS011;540;49.448;8.612;2023-05-08T06:48:47;5.63;;;4.03;;
1106;SDS011;540;49.448;8.612;2023-05-08T06:51:14;7.78;;;4.28;;
1106;SDS011;540;49.448;8.612;2023-05-08T06:53:42;4.60;;;3.75;;
1106;SDS011;540;49.448;8.612;2023-05-08T06:56:10;5.75;;;4.60;;
1106;SDS011;540;49.448;8.612;2023-05-08T06:58:38;6.63;;;3.92;;
1106;SDS011;540;49.448;8.612;2023-05-08T07:01:06;5.80;;;4.20;;
1106;SDS011;540;49.448;8.612;2023-05-08T07:03:35;5.10;;;4.15;;
1106;SDS011;540;49.448;8.612;2023-05-08T07:06:03;5.25;;;4.38;;
1106;SDS011;540;49.448;8.612;2023-05-08T07:08:31;6.00;;;4.90;;
1106;SDS011;540;49.448;8.612;2023-05-08T07:10:59;6.18;;;4.35;;
1106;SDS011;540;49.448;8.612;2023-05-08T07:13:27;5.97;;;4.75;;
1106;SDS011;540;49.448;8.612;2023-05-08T07:15:55;8.82;;;4.45;;
1106;SDS011;540;49.448;8.612;2023-05-08T07:18:23;5.78;;;5.18;;
1106;SDS011;540;49.448;8.612;2023-05-08T07:20:52;7.00;;;4.90;;
1106;SDS011;540;49.448;8.612;2023-05-08T07:23:20;6.78;;;5.18;;
1106;SDS011;540;49.448;8.612;2023-05-08T07:25:48;7.07;;;4.93;;
1106;SDS011;540;49.448;8.612;2023-05-08T07:28:16;6.35;;;4.97;;
1106;SDS011;540;49.448;8.612;2023-05-08T07:30:43;6.05;;;4.93;;
1106;SDS011;540;49.448;8.612;2023-05-08T07:33:11;5.85;;;5.03;;
1106;SDS011;540;49.448;8.612;2023-05-08T07:35:39;7.15;;;5.18;;
1106;SDS011;540;49.448;8.612;2023-05-08T07:38:09;15.75;;;10.02;;
1106;SDS011;540;49.448;8.612;2023-05-08T07:40:37;6.75;;;5.13;;
1106;SDS011;540;49.448;8.612;2023-05-08T07:43:04;6.65;;;5.15;;
1106;SDS011;540;49.448;8.612;2023-05-08T07:45:32;6.57;;;4.88;;
1106;SDS011;540;49.448;8.612;2023-05-08T07:48:01;6.75;;;5.05;;
1106;SDS011;540;49.448;8.612;2023-05-08T07:50:29;7.00;;;5.10;;
1106;SDS011;540;49.448;8.612;2023-05-08T07:52:57;6.25;;;5.07;;
1106;SDS011;540;49.448;8.612;2023-05-08T07:55:26;8.90;;;5.72;;
1106;SDS011;540;49.448;8.612;2023-05-08T07:57:53;6.97;;;5.38;;
1106;SDS011;540;49.448;8.612;2023-05-08T08:00:21;7.15;;;5.13;;
1106;SDS011;540;49.448;8.612;2023-05-08T08:02:49;7.18;;;6.05;;
1106;SDS011;540;49.448;8.612;2023-05-08T08:05:19;7.53;;;5.78;;
1106;SDS011;540;49.448;8.612;2023-05-08T08:07:49;6.10;;;5.50;;
1106;SDS011;540;49.448;8.612;2023-05-08T08:10:19;7.40;;;5.95;;
1106;SDS011;540;49.448;8.612;2023-05-08T08:12:50;8.85;;;6.70;;
1106;SDS011;540;49.448;8.612;2023-05-08T08:15:20;37.67;;;26.30;;
1106;SDS011;540;49.448;8.612;2023-05-08T08:17:50;14.95;;;10.85;;
1106;SDS011;540;49.448;8.612;2023-05-08T08:20:20;8.00;;;6.07;;
1106;SDS011;540;49.448;8.612;2023-05-08T08:22:50;8.30;;;5.93;;
1106;SDS011;540;49.448;8.612;2023-05-08T08:25:19;8.73;;;5.82;;
1106;SDS011;540;49.448;8.612;2023-05-08T08:27:51;9.07;;;5.40;;
1106;SDS011;540;49.448;8.612;2023-05-08T08:30:20;8.05;;;6.13;;
1106;SDS011;540;49.448;8.612;2023-05-08T08:32:50;9.48;;;6.20;;
1106;SDS011;540;49.448;8.612;2023-05-08T08:35:20;6.50;;;5.65;;
1106;SDS011;540;49.448;8.612;2023-05-08T08:37:55;8.70;;;5.95;;
1106;SDS011;540;49.448;8.612;2023-05-08T08:40:25;11.57;;;6.05;;
1106;SDS011;540;49.448;8.612;2023-05-08T08:42:56;7.05;;;5.57;;
1106;SDS011;540;49.448;8.612;2023-05-08T08:45:26;8.85;;;5.22;;
1106;SDS011;540;49.448;8.612;2023-05-08T08:47:56;8.77;;;6.28;;
1106;SDS011;540;49.448;8.612;2023-05-08T08:50:30;6.57;;;5.70;;
1106;SDS011;540;49.448;8.612;2023-05-08T08:53:04;10.45;;;6.15;;
1106;SDS011;540;49.448;8.612;2023-05-08T08:55:43;9.73;;;6.22;;
1106;SDS011;540;49.448;8.612;2023-05-08T08:58:19;8.95;;;6.10;;
1106;SDS011;540;49.448;8.612;2023-05-08T09:00:50;13.52;;;7.00;;
1106;SDS011;540;49.448;8.612;2023-05-08T09:03:20;10.35;;;6.50;;
1106;SDS011;540;49.448;8.612;2023-05-08T09:05:48;8.50;;;6.40;;
1106;SDS011;540;49.448;8.612;2023-05-08T09:08:17;9.13;;;6.50;;
1106;SDS011;540;49.448;8.612;2023-05-08T09:10:45;9.32;;;6.22;;
1106;SDS011;540;49.448;8.612;2023-05-08T09:13:13;14.10;;;10.80;;
1106;SDS011;540;49.448;8.612;2023-05-08T09:15:45;10.18;;;6.68;;
1106;SDS011;540;49.448;8.612;2023-05-08T09:18:14;6.78;;;6.00;;
1106;SDS011;540;49.448;8.612;2023-05-08T09:20:42;9.70;;;6.00;;
1106;SDS011;540;49.448;8.612;2023-05-08T09:23:11;7.70;;;5.55;;
1106;SDS011;540;49.448;8.612;2023-05-08T09:25:42;10.68;;;5.80;;
1106;SDS011;540;49.448;8.612;2023-05-08T09:28:14;7.80;;;6.25;;
1106;SDS011;540;49.448;8.612;2023-05-08T09:30:51;11.10;;;6.47;;
1106;SDS011;540;49.448;8.612;2023-05-08T09:33:21;10.60;;;6.35;;
1106;SDS011;540;49.448;8.612;2023-05-08T09:35:51;7.68;;;5.95;;
1106;SDS011;540;49.448;8.612;2023-05-08T09:38:32;8.70;;;6.18;;
1106;SDS011;540;49.448;8.612;2023-05-08T09:41:09;8.57;;;6.05;;
1106;SDS011;540;49.448;8.612;2023-05-08T09:43:40;7.53;;;6.00;;
1106;SDS011;540;49.448;8.612;2023-05-08T09:46:22;11.80;;;7.60;;
1106;SDS011;540;49.448;8.612;2023-05-08T09:48:52;11.27;;;6.82;;
1106;SDS011;540;49.448;8.612;2023-05-08T09:51:21;9.05;;;6.65;;
1106;SDS011;540;49.448;8.612;2023-05-08T09:53:49;9.77;;;7.97;;
1106;SDS011;540;49.448;8.612;2023-05-08T09:56:34;15.40;;;11.40;;
1106;SDS011;540;49.448;8.612;2023-05-08T09:59:04;13.68;;;9.25;;
1106;SDS011;540;49.448;8.612;2023-05-08T10:01:50;6.97;;;5.82;;
1106;SDS011;540;49.448;8.612;2023-05-08T10:04:29;7.15;;;6.15;;
1106;SDS011;540;49.448;8.612;2023-05-08T10:06:58;7.53;;;5.85;;
1106;SDS011;540;49.448;8.612;2023-05-08T10:09:26;8.93;;;6.35;;
1106;SDS011;540;49.448;8.612;2023-05-08T10:12:08;9.57;;;7.15;;
1106;SDS011;540;49.448;8.612;2023-05-08T10:14:35;9.65;;;6.95;;
1106;SDS011;540;49.448;8.612;2023-05-08T10:17:05;7.65;;;6.78;;
1106;SDS011;540;49.448;8.612;2023-05-08T10:19:36;9.13;;;7.65;;
1106;SDS011;540;49.448;8.612;2023-05-08T10:24:41;9.88;;;7.57;;
1106;SDS011;540;49.448;8.612;2023-05-08T10:27:13;7.82;;;6.15;;
1106;SDS011;540;49.448;8.612;2023-05-08T10:29:46;9.07;;;6.68;;
1106;SDS011;540;49.448;8.612;2023-05-08T10:32:20;8.10;;;6.57;;
1106;SDS011;540;49.448;8.612;2023-05-08T10:34:51;7.35;;;5.80;;
1106;SDS011;540;49.448;8.612;2023-05-08T10:37:19;7.15;;;6.35;;
1106;SDS011;540;49.448;8.612;2023-05-08T10:39:47;7.93;;;5.97;;
1106;SDS011;540;49.448;8.612;2023-05-08T10:42:16;8.48;;;6.65;;
1106;SDS011;540;49.448;8.612;2023-05-08T10:44:44;10.82;;;7.50;;
1106;SDS011;540;49.448;8.612;2023-05-08T10:47:14;10.45;;;6.55;;
1106;SDS011;540;49.448;8.612;2023-05-08T10:49:50;25.05;;;15.30;;
1106;SDS011;540;49.448;8.612;2023-05-08T10:52:28;16.50;;;11.55;;
1106;SDS011;540;49.448;8.612;2023-05-08T10:55:08;10.38;;;6.57;;
1106;SDS011;540;49.448;8.612;2023-05-08T10:58:00;11.55;;;6.72;;
1106;SDS011;540;49.448;8.612;2023-05-08T11:01:09;8.85;;;6.35;;
1106;SDS011;540;49.448;8.612;2023-05-08T11:03:42;7.93;;;6.28;;
1106;SDS011;540;49.448;8.612;2023-05-08T11:06:13;7.35;;;6.30;;
1106;SDS011;540;49.448;8.612;2023-05-08T11:08:44;7.65;;;6.15;;
1106;SDS011;540;49.448;8.612;2023-05-08T11:11:16;7.30;;;5.50;;
1106;SDS011;540;49.448;8.612;2023-05-08T11:13:52;7.25;;;5.85;;
1106;SDS011;540;49.448;8.612;2023-05-08T11:19:28;7.20;;;6.00;;
1106;SDS011;540;49.448;8.612;2023-05-08T11:22:19;7.43;;;5.60;;
1106;SDS011;540;49.448;8.612;2023-05-08T11:24:51;7.40;;;5.60;;
1106;SDS011;540;49.448;8.612;2023-05-08T11:30:34;7.60;;;5.38;;
1106;SDS011;540;49.448;8.612;2023-05-08T11:33:13;7.25;;;5.10;;
1106;SDS011;540;49.448;8.612;2023-05-08T11:35:43;6.80;;;4.65;;
1106;SDS011;540;49.448;8.612;2023-05-08T11:38:20;4.95;;;4.32;;
1106;SDS011;540;49.448;8.612;2023-05-08T11:40:54;7.20;;;5.40;;
1106;SDS011;540;49.448;8.612;2023-05-08T11:43:24;7.20;;;5.05;;
1106;SDS011;540;49.448;8.612;2023-05-08T11:46:12;5.13;;;4.35;;
1106;SDS011;540;49.448;8.612;2023-05-08T11:48:41;9.20;;;6.47;;
1106;SDS011;540;49.448;8.612;2023-05-08T11:51:09;6.50;;;4.93;;
1106;SDS011;540;49.448;8.612;2023-05-08T11:53:40;5.28;;;4.25;;
1106;SDS011;540;49.448;8.612;2023-05-08T11:56:09;9.57;;;7.05;;
1106;SDS011;540;49.448;8.612;2023-05-08T11:58:37;5.78;;;5.18;;
1106;SDS011;540;49.448;8.612;2023-05-08T12:01:05;7.10;;;4.65;;
1106;SDS011;540;49.448;8.612;2023-05-08T12:03:33;4.68;;;3.70;;
1106;SDS011;540;49.448;8.612;2023-05-08T12:06:01;4.95;;;4.38;;
1106;SDS011;540;49.448;8.612;2023-05-08T12:08:29;5.40;;;4.22;;
1106;SDS011;540;49.448;8.612;2023-05-08T12:10:58;7.47;;;6.25;;
1106;SDS011;540;49.448;8.612;2023-05-08T12:13:26;5.95;;;4.82;;
1106;SDS011;540;49.448;8.612;2023-05-08T12:15:56;4.82;;;4.25;;
1106;SDS011;540;49.448;8.612;2023-05-08T12:18:25;5.35;;;4.60;;
1106;SDS011;540;49.448;8.612;2023-05-08T12:20:56;5.78;;;5.18;;
1106;SDS011;540;49.448;8.612;2023-05-08T12:23:25;5.60;;;4.38;;
1106;SDS011;540;49.448;8.612;2023-05-08T12:25:57;4.55;;;3.97;;
1106;SDS011;540;49.448;8.612;2023-05-08T12:28:27;6.22;;;4.40;;
1106;SDS011;540;49.448;8.612;2023-05-08T12:30:55;5.68;;;4.47;;
1106;SDS011;540;49.448;8.612;2023-05-08T12:33:23;5.80;;;4.80;;
1106;SDS011;540;49.448;8.612;2023-05-08T12:35:51;4.82;;;4.28;;
1106;SDS011;540;49.448;8.612;2023-05-08T12:38:23;6.25;;;5.25;;
1106;SDS011;540;49.448;8.612;2023-05-08T12:40:52;5.25;;;4.65;;
1106;SDS011;540;49.448;8.612;2023-05-08T12:43:22;7.00;;;4.47;;
1106;SDS011;540;49.448;8.612;2023-05-08T12:45:58;5.10;;;4.30;;
1106;SDS011;540;49.448;8.612;2023-05-08T12:48:26;7.97;;;4.63;;
1106;SDS011;540;49.448;8.612;2023-05-08T12:50:54;5.93;;;4.38;;
1106;SDS011;540;49.448;8.612;2023-05-08T12:53:29;6.70;;;5.03;;
1106;SDS011;540;49.448;8.612;2023-05-08T12:55:59;6.07;;;5.07;;
1106;SDS011;540;49.448;8.612;2023-05-08T12:58:31;6.85;;;5.03;;
1106;SDS011;540;49.448;8.612;2023-05-08T13:01:04;5.28;;;4.50;;
1106;SDS011;540;49.448;8.612;2023-05-08T13:03:35;6.18;;;4.90;;
1106;SDS011;540;49.448;8.612;2023-05-08T13:06:03;5.50;;;4.30;;
1106;SDS011;540;49.448;8.612;2023-05-08T13:08:32;4.55;;;4.03;;
1106;SDS011;540;49.448;8.612;2023-05-08T13:11:02;4.47;;;3.83;;
1106;SDS011;540;49.448;8.612;2023-05-08T13:13:33;5.68;;;3.50;;
1106;SDS011;540;49.448;8.612;2023-05-08T13:16:02;8.52;;;4.13;;
1106;SDS011;540;49.448;8.612;2023-05-08T13:18:31;5.63;;;4.28;;
1106;SDS011;540;49.448;8.612;2023-05-08T13:21:01;4.00;;;3.60;;
1106;SDS011;540;49.448;8.612;2023-05-08T13:23:29;7.13;;;4.32;;
1106;SDS011;540;49.448;8.612;2023-05-08T13:25:57;4.38;;;3.22;;
1106;SDS011;540;49.448;8.612;2023-05-08T13:28:25;5.53;;;3.25;;
1106;SDS011;540;49.448;8.612;2023-05-08T13:30:54;4.43;;;3.10;;
1106;SDS011;540;49.448;8.612;2023-05-08T13:33:22;3.80;;;2.92;;
1106;SDS011;540;49.448;8.612;2023-05-08T13:35:50;3.70;;;2.70;;
1106;SDS011;540;49.448;8.612;2023-05-08T13:38:17;5.40;;;3.10;;
1106;SDS011;540;49.448;8.612;2023-05-08T13:40:45;3.38;;;3.08;;
1106;SDS011;540;49.448;8.612;2023-05-08T13:43:13;4.13;;;3.28;;
1106;SDS011;540;49.448;8.612;2023-05-08T13:45:40;6.03;;;3.60;;
1106;SDS011;540;49.448;8.612;2023-05-08T13:48:10;4.57;;;3.70;;
1106;SDS011;540;49.448;8.612;2023-05-08T13:50:38;5.38;;;3.45;;
1106;SDS011;540;49.448;8.612;2023-05-08T13:53:05;3.90;;;3.25;;
1106;SDS011;540;49.448;8.612;2023-05-08T13:55:33;4.35;;;3.20;;
1106;SDS011;540;49.448;8.612;2023-05-08T13:58:02;4.88;;;3.40;;
1106;SDS011;540;49.448;8.612;2023-05-08T14:00:30;4.85;;;3.25;;
1106;SDS011;540;49.448;8.612;2023-05-08T14:02:59;4.97;;;4.00;;
1106;SDS011;540;49.448;8.612;2023-05-08T14:05:28;6.22;;;3.60;;
1106;SDS011;540;49.448;8.612;2023-05-08T14:07:56;4.20;;;3.55;;
1106;SDS011;540;49.448;8.612;2023-05-08T14:10:24;4.07;;;3.50;;
1106;SDS011;540;49.448;8.612;2023-05-08T14:12:52;5.18;;;3.33;;
1106;SDS011;540;49.448;8.612;2023-05-08T14:15:20;4.40;;;3.25;;
1106;SDS011;540;49.448;8.612;2023-05-08T14:17:56;5.72;;;3.83;;
1106;SDS011;540;49.448;8.612;2023-05-08T14:20:24;4.05;;;3.65;;
1106;SDS011;540;49.448;8.612;2023-05-08T14:22:53;5.13;;;3.80;;
1106;SDS011;540;49.448;8.612;2023-05-08T14:25:25;6.65;;;3.75;;
1106;SDS011;540;49.448;8.612;2023-05-08T14:27:53;4.18;;;3.47;;
1106;SDS011;540;49.448;8.612;2023-05-08T14:30:21;6.00;;;3.70;;
1106;SDS011;540;49.448;8.612;2023-05-08T14:32:49;5.22;;;4.00;;
1106;SDS011;540;49.448;8.612;2023-05-08T14:35:17;7.00;;;4.22;;
1106;SDS011;540;49.448;8.612;2023-05-08T14:37:44;4.80;;;3.97;;
1106;SDS011;540;49.448;8.612;2023-05-08T14:40:14;5.25;;;4.75;;
1106;SDS011;540;49.448;8.612;2023-05-08T14:42:41;4.43;;;3.97;;
1106;SDS011;540;49.448;8.612;2023-05-08T14:45:09;6.30;;;4.00;;
1106;SDS011;540;49.448;8.612;2023-05-08T14:47:38;5.25;;;4.05;;
1106;SDS011;540;49.448;8.612;2023-05-08T14:50:06;6.00;;;4.53;;
1106;SDS011;540;49.448;8.612;2023-05-08T14:52:34;7.28;;;3.85;;
1106;SDS011;540;49.448;8.612;2023-05-08T14:55:02;4.25;;;3.58;;
1106;SDS011;540;49.448;8.612;2023-05-08T14:57:31;5.22;;;4.25;;
1106;SDS011;540;49.448;8.612;2023-05-08T14:59:59;6.57;;;4.25;;
1106;SDS011;540;49.448;8.612;2023-05-08T15:02:27;5.05;;;4.03;;
1106;SDS011;540;49.448;8.612;2023-05-08T15:04:55;4.63;;;3.78;;
1106;SDS011;540;49.448;8.612;2023-05-08T15:07:23;6.55;;;4.13;;
1106;SDS011;540;49.448;8.612;2023-05-08T15:09:50;4.18;;;3.55;;
1106;SDS011;540;49.448;8.612;2023-05-08T15:12:19;5.85;;;4.20;;
1106;SDS011;540;49.448;8.612;2023-05-08T15:14:48;5.22;;;3.97;;
1106;SDS011;540;49.448;8.612;2023-05-08T15:17:16;4.22;;;3.80;;
1106;SDS011;540;49.448;8.612;2023-05-08T15:19:44;6.15;;;4.32;;
1106;SDS011;540;49.448;8.612;2023-05-08T15:22:11;4.50;;;3.97;;
1106;SDS011;540;49.448;8.612;2023-05-08T15:24:39;9.20;;;4.47;;
1106;SDS011;540;49.448;8.612;2023-05-08T15:27:07;5.18;;;4.50;;
1106;SDS011;540;49.448;8.612;2023-05-08T15:29:36;4.40;;;4.00;;
1106;SDS011;540;49.448;8.612;2023-05-08T15:32:06;7.28;;;4.93;;
1106;SDS011;540;49.448;8.612;2023-05-08T15:34:34;7.43;;;5.22;;
1106;SDS011;540;49.448;8.612;2023-05-08T15:37:04;6.43;;;4.32;;
1106;SDS011;540;49.448;8.612;2023-05-08T15:39:33;5.57;;;4.45;;
1106;SDS011;540;49.448;8.612;2023-05-08T15:42:01;8.15;;;5.20;;
1106;SDS011;540;49.448;8.612;2023-05-08T15:44:30;7.80;;;5.63;;
1106;SDS011;540;49.448;8.612;2023-05-08T15:47:19;6.25;;;4.97;;
1106;SDS011;540;49.448;8.612;2023-05-08T15:49:48;9.98;;;6.00;;
1106;SDS011;540;49.448;8.612;2023-05-08T15:52:15;8.82;;;4.95;;
1106;SDS011;540;49.448;8.612;2023-05-08T15:54:44;6.82;;;5.35;;
1106;SDS011;540;49.448;8.612;2023-05-08T15:57:12;7.35;;;5.07;;
1106;SDS011;540;49.448;8.612;2023-05-08T15:59:40;7.30;;;5.65;;
1106;SDS011;540;49.448;8.612;2023-05-08T16:02:08;7.65;;;5.45;;
1106;SDS011;540;49.448;8.612;2023-05-08T16:04:37;5.97;;;5.30;;